Time;durP1;ratioP1;P1;durP2;ratioP2;P2;SDS_P1;SDS_P2;PMS_P1;PMS_P2;Temp;Humidity;BMP_temperature;BMP_pressure;BME280_temperature;BME280_humidity;BME280_pressure;Samples;Min_cycle;Max_cycle;Signal;HPM_P1;HPM_P2
2022/08/02 00:02:11;;;;;;;;;6.00;5.00;;;;;-145.45;100.00;57426.63;5080932;27;45343;-73
2022/08/02 00:04:36;;;;;;;;;6.00;5.00;;;;;-145.45;100.00;57426.63;5079695;28;45348;-73
2022/08/02 00:07:02;;;;;;;;;4.67;4.00;;;;;-145.45;100.00;57426.63;5081049;28;45273;-73
2022/08/02 00:09:28;;;;;;;;;7.33;6.33;;;;;-145.45;100.00;57426.63;5081038;28;45233;-72
2022/08/02 00:11:53;;;;;;;;;6.00;6.00;;;;;-145.45;100.00;57426.63;5062313;28;45335;-73
2022/08/02 00:14:19;;;;;;;;;6.00;6.00;;;;;-145.45;100.00;57426.63;5080933;27;45232;-73
2022/08/02 00:16:44;;;;;;;;;6.33;5.67;;;;;-145.45;100.00;57426.63;5080919;28;45464;-73
2022/08/02 00:19:09;;;;;;;;;5.33;5.33;;;;;-145.45;100.00;57426.63;5080725;28;45166;-73
2022/08/02 00:21:34;;;;;;;;;5.33;5.33;;;;;-145.45;100.00;57426.63;5062382;28;48230;-72
2022/08/02 00:24:00;;;;;;;;;5.67;5.67;;;;;-145.45;100.00;57426.63;5080793;28;45320;-72
2022/08/02 00:26:25;;;;;;;;;4.67;4.67;;;;;-145.45;100.00;57426.63;5080583;27;45241;-72
2022/08/02 00:28:51;;;;;;;;;4.33;4.33;;;;;-145.45;100.00;57426.63;5080478;28;52395;-72
2022/08/02 00:31:16;;;;;;;;;8.00;6.67;;;;;-145.45;100.00;57426.63;5080057;28;45338;-72
2022/08/02 00:33:41;;;;;;;;;3.00;2.33;;;;;-145.45;100.00;57426.63;5080059;27;45942;-72
2022/08/02 00:36:07;;;;;;;;;5.33;4.33;;;;;-145.45;100.00;57426.63;5084716;27;45521;-72
2022/08/02 00:38:32;;;;;;;;;7.33;5.33;;;;;-145.45;100.00;57426.63;5080313;27;45222;-72
2022/08/02 00:40:57;;;;;;;;;5.33;5.33;;;;;-145.45;100.00;57426.63;5080213;27;48558;-72
2022/08/02 00:43:23;;;;;;;;;4.00;4.00;;;;;-145.45;100.00;57426.63;5080587;28;45321;-72
2022/08/02 00:45:48;;;;;;;;;5.00;5.00;;;;;-145.45;100.00;57426.63;5080461;27;45666;-73
2022/08/02 00:48:13;;;;;;;;;5.00;5.00;;;;;-145.45;100.00;57426.63;5061996;28;48260;-73
2022/08/02 00:50:40;;;;;;;;;6.00;6.00;;;;;-145.45;100.00;57426.63;5079901;27;45344;-73
2022/08/02 00:53:07;;;;;;;;;7.00;4.67;;;;;-145.45;100.00;57426.63;5080267;27;45301;-73
2022/08/02 00:55:34;;;;;;;;;4.00;4.00;;;;;-145.45;100.00;57426.63;5080255;28;46477;-73
2022/08/02 00:57:59;;;;;;;;;5.00;3.67;;;;;-145.45;100.00;57426.63;5080225;28;45273;-73
2022/08/02 01:00:24;;;;;;;;;5.00;5.00;;;;;-145.45;100.00;57426.63;5080063;28;45198;-73
2022/08/02 01:02:50;;;;;;;;;6.67;3.67;;;;;-145.45;100.00;57426.63;5080145;28;45304;-73
2022/08/02 01:05:16;;;;;;;;;3.33;3.33;;;;;-145.45;100.00;57426.63;5080138;27;45237;-73
2022/08/02 01:07:41;;;;;;;;;4.33;3.00;;;;;-145.45;100.00;57426.63;5080104;28;45185;-73
2022/08/02 01:10:07;;;;;;;;;4.33;4.00;;;;;-145.45;100.00;57426.63;5061459;28;46815;-73
2022/08/02 01:12:33;;;;;;;;;4.67;4.67;;;;;-145.45;100.00;57426.63;5079939;28;45294;-73
2022/08/02 01:15:02;;;;;;;;;5.00;5.00;;;;;-145.45;100.00;57426.63;5079737;27;45270;-73
2022/08/02 01:17:43;;;;;;;;;3.00;3.00;;;;;-145.45;100.00;57426.63;5079825;28;46133;-72
2022/08/02 01:20:14;;;;;;;;;3.00;3.00;;;;;-145.45;100.00;57426.63;5079575;28;45330;-73
2022/08/02 01:23:14;;;;;;;;;5.00;5.00;;;;;-145.45;100.00;57426.63;5079818;28;45284;-73
2022/08/02 01:25:57;;;;;;;;;5.00;2.33;;;;;-145.45;100.00;57426.63;5089498;27;45413;-73
2022/08/02 01:28:39;;;;;;;;;5.00;5.00;;;;;-145.45;100.00;57426.63;5080049;27;45481;-73
2022/08/02 01:31:19;;;;;;;;;6.67;5.00;;;;;-145.45;100.00;57426.63;5079525;27;45232;-73
2022/08/02 01:33:55;;;;;;;;;4.33;4.33;;;;;-145.45;100.00;57426.63;5080903;27;45700;-73
2022/08/02 01:36:22;;;;;;;;;6.00;4.00;;;;;-145.45;100.00;57426.63;5081760;27;45237;-73
2022/08/02 01:38:51;;;;;;;;;4.33;4.33;;;;;-145.45;100.00;57426.63;5079767;27;45370;-73
2022/08/02 01:41:24;;;;;;;;;5.33;4.00;;;;;-145.45;100.00;57426.63;5079217;27;45658;-73
2022/08/02 01:43:54;;;;;;;;;6.67;4.33;;;;;-145.45;100.00;57426.63;5061568;28;45484;-73
2022/08/02 01:46:21;;;;;;;;;4.33;4.33;;;;;-145.45;100.00;57426.63;5086657;27;45266;-73
2022/08/02 01:48:49;;;;;;;;;5.33;5.00;;;;;-145.45;100.00;57426.63;5099639;27;45452;-73
2022/08/02 01:51:17;;;;;;;;;4.33;4.33;;;;;-145.45;100.00;57426.63;5099981;27;46310;-73
2022/08/02 01:53:47;;;;;;;;;3.33;3.33;;;;;-145.45;100.00;57426.63;5099741;27;45363;-73
2022/08/02 01:56:16;;;;;;;;;4.33;3.00;;;;;-145.45;100.00;57426.63;5100037;27;45320;-73
2022/08/02 01:58:43;;;;;;;;;5.00;5.00;;;;;-145.45;100.00;57426.63;5099625;27;45504;-73
2022/08/02 02:01:12;;;;;;;;;4.00;4.00;;;;;-145.45;100.00;57426.63;5099839;27;45900;-73
2022/08/02 02:03:38;;;;;;;;;4.67;3.67;;;;;-145.45;100.00;57426.63;5099417;27;45268;-73
2022/08/02 02:06:06;;;;;;;;;3.67;3.33;;;;;-145.45;100.00;57426.63;5099887;27;45248;-73
2022/08/02 02:08:36;;;;;;;;;5.33;4.00;;;;;-145.45;100.00;57426.63;5099491;27;45472;-72
2022/08/02 02:11:03;;;;;;;;;4.67;4.67;;;;;-145.45;100.00;57426.63;5080274;27;47881;-73
2022/08/02 02:13:30;;;;;;;;;4.00;4.00;;;;;-145.45;100.00;57426.63;5099497;27;45149;-73
2022/08/02 02:15:58;;;;;;;;;3.67;3.67;;;;;-145.45;100.00;57426.63;5099767;27;45246;-73
2022/08/02 02:18:26;;;;;;;;;2.67;2.67;;;;;-145.45;100.00;57426.63;5099259;27;45444;-73
2022/08/02 02:20:52;;;;;;;;;4.00;4.00;;;;;-145.45;100.00;57426.63;5099201;27;46217;-73
2022/08/02 02:23:18;;;;;;;;;3.67;3.67;;;;;-145.45;100.00;57426.63;5099366;27;45278;-73
2022/08/02 02:25:44;;;;;;;;;4.67;4.67;;;;;-145.45;100.00;57426.63;5099368;27;45418;-73
2022/08/02 02:28:21;;;;;;;;;4.00;4.00;;;;;-145.45;100.00;57426.63;5078253;28;45214;-73
2022/08/02 02:30:48;;;;;;;;;4.00;4.00;;;;;-145.45;100.00;57426.63;5082573;27;45368;-73
2022/08/02 02:33:17;;;;;;;;;3.00;3.00;;;;;-145.45;100.00;57426.63;5063658;28;45346;-73
2022/08/02 02:35:46;;;;;;;;;4.00;4.00;;;;;-145.45;100.00;57426.63;5086817;27;45454;-73
2022/08/02 02:38:15;;;;;;;;;4.67;4.67;;;;;-145.45;100.00;57426.63;5089330;27;45311;-73
2022/08/02 02:40:43;;;;;;;;;4.00;4.00;;;;;-145.45;100.00;57426.63;5102672;27;46192;-73
2022/08/02 02:43:11;;;;;;;;;4.67;4.33;;;;;-145.45;100.00;57426.63;5102742;27;45317;-72
2022/08/02 02:45:38;;;;;;;;;4.33;4.33;;;;;-145.45;100.00;57426.63;5102866;27;45247;-72
2022/08/02 02:48:05;;;;;;;;;5.00;4.00;;;;;-145.45;100.00;57426.63;5084186;27;46194;-72
2022/08/02 02:50:32;;;;;;;;;4.00;4.00;;;;;-145.45;100.00;57426.63;5102191;27;45471;-72
2022/08/02 02:52:59;;;;;;;;;7.00;6.00;;;;;-145.45;100.00;57426.63;5102563;27;45309;-72
2022/08/02 02:55:25;;;;;;;;;4.67;4.67;;;;;-145.45;100.00;57426.63;5102595;27;45248;-72
2022/08/02 02:57:50;;;;;;;;;4.00;4.00;;;;;-145.45;100.00;57426.63;5101201;27;46122;-72
2022/08/02 03:00:17;;;;;;;;;3.67;3.67;;;;;-145.45;100.00;57426.63;5102401;27;45225;-72
2022/08/02 03:02:44;;;;;;;;;5.00;5.00;;;;;-145.45;100.00;57426.63;5084125;27;45021;-72
2022/08/02 03:05:11;;;;;;;;;5.67;4.00;;;;;-145.45;100.00;57426.63;5102380;27;45318;-72
2022/08/02 03:07:37;;;;;;;;;5.00;5.00;;;;;-145.45;100.00;57426.63;5102385;27;45512;-72
2022/08/02 03:10:04;;;;;;;;;5.00;5.00;;;;;-145.45;100.00;57426.63;5102118;27;45537;-72
2022/08/02 03:12:30;;;;;;;;;5.00;5.00;;;;;-145.45;100.00;57426.63;5102073;27;45258;-72
2022/08/02 03:14:57;;;;;;;;;6.00;6.00;;;;;-145.45;100.00;57426.63;5102309;27;45309;-72
2022/08/02 03:17:22;;;;;;;;;7.33;7.33;;;;;-145.45;100.00;57426.63;5102266;27;45166;-72
2022/08/02 03:19:48;;;;;;;;;6.00;5.00;;;;;-145.45;100.00;57426.63;5101908;27;46509;-72
2022/08/02 03:22:13;;;;;;;;;7.00;6.00;;;;;-145.45;100.00;57426.63;5083901;27;45430;-72
2022/08/02 03:24:39;;;;;;;;;7.33;6.33;;;;;-145.45;100.00;57426.63;5102182;27;45225;-72
2022/08/02 03:27:04;;;;;;;;;7.33;5.33;;;;;-145.45;100.00;57426.63;5093274;27;45489;-72
2022/08/02 03:29:29;;;;;;;;;6.67;6.67;;;;;-145.45;100.00;57426.63;5081338;28;45936;-72
2022/08/02 03:31:55;;;;;;;;;8.33;5.33;;;;;-145.45;100.00;57426.63;5081671;28;45327;-72
2022/08/02 03:34:22;;;;;;;;;7.33;6.00;;;;;-145.45;100.00;57426.63;5086335;27;45422;-72
2022/08/02 03:36:50;;;;;;;;;6.00;6.00;;;;;-145.45;100.00;57426.63;5081272;28;45609;-72
2022/08/02 03:39:18;;;;;;;;;6.33;4.67;;;;;-145.45;100.00;57426.63;5080974;28;46078;-72
2022/08/02 03:41:44;;;;;;;;;7.00;5.00;;;;;-145.45;100.00;57426.63;5081340;27;45385;-72
2022/08/02 03:44:12;;;;;;;;;5.67;4.67;;;;;-145.45;100.00;57426.63;5081407;27;45430;-72
2022/08/02 03:46:40;;;;;;;;;4.67;4.33;;;;;-145.45;100.00;57426.63;5081230;27;45656;-72
2022/08/02 03:49:07;;;;;;;;;5.33;5.33;;;;;-145.45;100.00;57426.63;5080733;27;45300;-72
2022/08/02 03:51:34;;;;;;;;;6.00;5.00;;;;;-145.45;100.00;57426.63;5081258;28;45228;-72
2022/08/02 03:54:01;;;;;;;;;4.33;4.33;;;;;-145.45;100.00;57426.63;5062428;28;45304;-72
2022/08/02 03:56:27;;;;;;;;;5.67;5.67;;;;;-145.45;100.00;57426.63;5081068;28;45323;-72
2022/08/02 03:59:07;;;;;;;;;5.67;5.67;;;;;-145.45;100.00;57426.63;5062519;28;47239;-72
2022/08/02 04:01:32;;;;;;;;;5.00;4.67;;;;;-145.45;100.00;57426.63;5081163;27;45284;-73
2022/08/02 04:03:57;;;;;;;;;5.33;5.33;;;;;-145.45;100.00;57426.63;5080819;28;45379;-72
2022/08/02 04:06:22;;;;;;;;;5.00;5.00;;;;;-145.45;100.00;57426.63;5080860;27;48356;-72
2022/08/02 04:08:48;;;;;;;;;4.67;4.67;;;;;-145.45;100.00;57426.63;5080618;27;51211;-72
2022/08/02 04:11:31;;;;;;;;;4.33;4.33;;;;;-145.45;100.00;57426.63;5080770;28;45324;-72
2022/08/02 04:14:08;;;;;;;;;4.67;4.33;;;;;-145.45;100.00;57426.63;5088825;27;45225;-72
2022/08/02 04:16:41;;;;;;;;;4.67;4.67;;;;;-145.45;100.00;57426.63;5101002;27;45547;-73
2022/08/02 04:19:09;;;;;;;;;6.00;5.33;;;;;-145.45;100.00;57426.63;5101014;27;46322;-72
2022/08/02 04:21:39;;;;;;;;;7.00;5.67;;;;;-145.45;100.00;57426.63;5100940;27;46029;-72
2022/08/02 04:24:06;;;;;;;;;6.33;5.33;;;;;-145.45;100.00;57426.63;5101402;27;45218;-72
2022/08/02 04:26:33;;;;;;;;;6.50;3.50;;;;;-145.45;100.00;57426.63;5096526;27;45294;-72
2022/08/02 04:29:00;;;;;;;;;4.00;4.00;;;;;-145.45;100.00;57426.63;5080690;27;46118;-72
2022/08/02 04:31:26;;;;;;;;;4.67;4.67;;;;;-145.45;100.00;57426.63;5080805;28;45306;-72
2022/08/02 04:33:52;;;;;;;;;5.00;5.00;;;;;-145.45;100.00;57426.63;5064819;27;45505;-72
2022/08/02 04:36:17;;;;;;;;;5.00;5.00;;;;;-145.45;100.00;57426.63;5082586;27;45331;-72
2022/08/02 04:38:43;;;;;;;;;6.00;4.00;;;;;-145.45;100.00;57426.63;5080170;27;45310;-72
2022/08/02 04:41:08;;;;;;;;;5.00;4.00;;;;;-145.45;100.00;57426.63;5080322;27;45267;-72
2022/08/02 04:43:34;;;;;;;;;7.33;6.67;;;;;-145.45;100.00;57426.63;5080573;28;45256;-72
2022/08/02 04:46:01;;;;;;;;;4.33;4.33;;;;;-145.45;100.00;57426.63;5080502;27;45223;-72
2022/08/02 04:48:27;;;;;;;;;4.33;4.33;;;;;-145.45;100.00;57426.63;5079693;28;45387;-72
2022/08/02 04:50:53;;;;;;;;;5.00;3.67;;;;;-145.45;100.00;57426.63;5079558;27;45529;-72
2022/08/02 04:53:18;;;;;;;;;4.33;4.33;;;;;-145.45;100.00;57426.63;5080435;28;45498;-72
2022/08/02 04:55:44;;;;;;;;;4.00;4.00;;;;;-145.45;100.00;57426.63;5080027;28;45372;-72
2022/08/02 04:58:10;;;;;;;;;3.00;3.00;;;;;-145.45;100.00;57426.63;5062087;28;45376;-72
2022/08/02 05:00:35;;;;;;;;;4.33;4.33;;;;;-145.45;100.00;57426.63;5078702;27;45281;-72
2022/08/02 05:03:00;;;;;;;;;5.00;4.33;;;;;-145.45;100.00;57426.63;5080288;28;45451;-72
2022/08/02 05:05:27;;;;;;;;;4.33;4.33;;;;;-145.45;100.00;57426.63;5079789;28;45450;-72
2022/08/02 05:07:52;;;;;;;;;5.67;5.00;;;;;-145.45;100.00;57426.63;5080020;28;46155;-72
2022/08/02 05:10:18;;;;;;;;;7.00;4.00;;;;;-145.45;100.00;57426.63;5079824;28;45269;-72
2022/08/02 05:12:44;;;;;;;;;6.67;6.67;;;;;-145.45;100.00;57426.63;5080002;28;45498;-72
2022/08/02 05:15:11;;;;;;;;;7.00;4.33;;;;;-145.45;100.00;57426.63;5079852;28;45259;-72
2022/08/02 05:17:37;;;;;;;;;4.00;4.00;;;;;-145.45;100.00;57426.63;5079899;28;45519;-72
2022/08/02 05:20:04;;;;;;;;;5.00;5.00;;;;;-145.45;100.00;57426.63;5079556;27;45202;-72
2022/08/02 05:22:29;;;;;;;;;6.67;5.00;;;;;-145.45;100.00;57426.63;5080055;28;45280;-73
2022/08/02 05:24:54;;;;;;;;;5.67;5.00;;;;;-145.45;100.00;57426.63;5079634;28;45376;-72
2022/08/02 05:27:20;;;;;;;;;4.33;4.33;;;;;-145.45;100.00;57426.63;5079556;28;45343;-72
2022/08/02 05:29:45;;;;;;;;;5.00;5.00;;;;;-145.45;100.00;57426.63;5079645;28;45304;-72
2022/08/02 05:32:10;;;;;;;;;4.00;4.00;;;;;-145.45;100.00;57426.63;5069075;28;45417;-72
2022/08/02 05:34:36;;;;;;;;;4.33;4.33;;;;;-145.45;100.00;57426.63;5083886;27;45464;-72
2022/08/02 05:37:01;;;;;;;;;3.67;3.67;;;;;-145.45;100.00;57426.63;5061144;28;47042;-72
2022/08/02 05:39:27;;;;;;;;;7.33;6.33;;;;;-145.45;100.00;57426.63;5079711;28;45301;-72
2022/08/02 05:41:52;;;;;;;;;4.67;4.67;;;;;-145.45;100.00;57426.63;5061072;28;45463;-72
2022/08/02 05:44:17;;;;;;;;;5.00;5.00;;;;;-145.45;100.00;57426.63;5079519;28;45506;-72
2022/08/02 05:46:42;;;;;;;;;4.33;4.33;;;;;-145.45;100.00;57426.63;5079474;28;45972;-72
2022/08/02 05:49:08;;;;;;;;;6.33;5.33;;;;;-145.45;100.00;57426.63;5079241;28;45293;-72
2022/08/02 05:51:37;;;;;;;;;5.00;5.00;;;;;-145.45;100.00;57426.63;5079711;28;45241;-72
2022/08/02 05:54:20;;;;;;;;;5.00;4.67;;;;;-145.45;100.00;57426.63;5060535;28;46158;-72
2022/08/02 05:56:53;;;;;;;;;7.33;4.00;;;;;-145.45;100.00;57426.63;5079206;28;46137;-72
2022/08/02 05:59:39;;;;;;;;;5.67;5.67;;;;;-145.45;100.00;57426.63;5087056;27;45163;-72
2022/08/02 06:02:23;;;;;;;;;7.00;5.00;;;;;-145.45;100.00;57426.63;5100120;27;45238;-74
2022/08/02 06:05:10;;;;;;;;;5.33;5.33;;;;;-145.45;100.00;57426.63;5103244;27;45370;-71
2022/08/02 06:07:36;;;;;;;;;7.00;5.67;;;;;-145.45;100.00;57426.63;5103337;27;45153;-72
2022/08/02 06:10:06;;;;;;;;;3.67;3.67;;;;;-145.45;100.00;57426.63;5103218;27;45535;-71
2022/08/02 06:12:40;;;;;;;;;6.00;4.33;;;;;-145.45;100.00;57426.63;5103468;27;45367;-71
2022/08/02 06:15:05;;;;;;;;;5.00;4.00;;;;;-145.45;100.00;57426.63;5103129;27;45297;-71
2022/08/02 06:17:31;;;;;;;;;6.00;4.33;;;;;-145.45;100.00;57426.63;5103045;27;46514;-72
2022/08/02 06:19:59;;;;;;;;;5.33;4.33;;;;;-145.45;100.00;57426.63;5102905;27;45363;-71
2022/08/02 06:22:26;;;;;;;;;3.67;3.67;;;;;-145.45;100.00;57426.63;5103214;27;45307;-71
2022/08/02 06:24:53;;;;;;;;;3.67;3.67;;;;;-145.45;100.00;57426.63;5102722;27;45467;-71
2022/08/02 06:27:20;;;;;;;;;4.00;4.00;;;;;-145.45;100.00;57426.63;5091821;27;45367;-71
2022/08/02 06:29:47;;;;;;;;;5.33;5.00;;;;;-145.45;100.00;57426.63;5082388;28;45307;-72
2022/08/02 06:32:17;;;;;;;;;6.00;5.00;;;;;-145.45;100.00;57426.63;5063985;28;45466;-72
2022/08/02 06:34:42;;;;;;;;;3.00;3.00;;;;;-145.45;100.00;57426.63;5068240;28;45723;-72
2022/08/02 06:37:17;;;;;;;;;4.00;4.00;;;;;-145.45;100.00;57426.63;5082185;27;45220;-71
2022/08/02 06:39:45;;;;;;;;;3.00;2.67;;;;;-145.45;100.00;57426.63;5080756;28;45295;-72
2022/08/02 06:42:14;;;;;;;;;5.00;5.00;;;;;-145.45;100.00;57426.63;5082170;28;45309;-72
2022/08/02 06:44:39;;;;;;;;;3.67;3.67;;;;;-145.45;100.00;57426.63;5081233;28;45514;-72
2022/08/02 06:47:05;;;;;;;;;6.00;4.00;;;;;-145.45;100.00;57426.63;5081675;27;46292;-72
2022/08/02 06:49:30;;;;;;;;;3.67;3.67;;;;;-145.45;100.00;57426.63;5081786;27;45306;-72
2022/08/02 06:51:55;;;;;;;;;5.00;2.67;;;;;-145.45;100.00;57426.63;5082394;27;45127;-72
2022/08/02 06:54:21;;;;;;;;;3.67;3.67;;;;;-145.45;100.00;57426.63;5082250;27;45284;-72
2022/08/02 06:56:47;;;;;;;;;2.33;2.33;;;;;-145.45;100.00;57426.63;5081976;28;45974;-73
2022/08/02 06:59:12;;;;;;;;;4.00;4.00;;;;;-145.45;100.00;57426.63;5081914;27;45187;-72
2022/08/02 07:01:37;;;;;;;;;4.00;3.00;;;;;-145.45;100.00;57426.63;5082201;27;45251;-72
2022/08/02 07:04:03;;;;;;;;;2.67;2.67;;;;;-145.45;100.00;57426.63;5063352;28;45867;-73
2022/08/02 07:06:29;;;;;;;;;3.67;3.67;;;;;-145.45;100.00;57426.63;5082059;27;46209;-72
2022/08/02 07:08:55;;;;;;;;;3.00;3.00;;;;;-145.45;100.00;57426.63;5081673;27;45312;-72
2022/08/02 07:11:21;;;;;;;;;2.67;2.67;;;;;-145.45;100.00;57426.63;5081701;28;45312;-72
2022/08/02 07:13:46;;;;;;;;;2.67;2.67;;;;;-145.45;100.00;57426.63;5079538;27;46017;-72
2022/08/02 07:16:11;;;;;;;;;4.00;4.00;;;;;-145.45;100.00;57426.63;5081504;27;45427;-72
2022/08/02 07:18:36;;;;;;;;;4.00;3.00;;;;;-145.45;100.00;57426.63;5063004;28;45361;-72
2022/08/02 07:21:04;;;;;;;;;4.67;4.00;;;;;-145.45;100.00;57426.63;5081784;28;45303;-72
2022/08/02 07:23:30;;;;;;;;;2.75;2.00;;;;;-145.45;100.00;57426.63;5081388;27;45435;-72
2022/08/02 07:25:55;;;;;;;;;3.00;3.00;;;;;-145.45;100.00;57426.63;5081669;28;45371;-72
2022/08/02 07:28:21;;;;;;;;;2.00;2.00;;;;;-145.45;100.00;57426.63;5081390;28;45229;-72
2022/08/02 07:30:46;;;;;;;;;3.75;3.75;;;;;-145.45;100.00;57426.63;5081569;28;45339;-72
2022/08/02 07:33:11;;;;;;;;;4.75;2.25;;;;;-145.45;100.00;57426.63;5063091;28;46059;-72
2022/08/02 07:35:37;;;;;;;;;3.50;2.25;;;;;-145.45;100.00;57426.63;5086022;27;45284;-73
2022/08/02 07:38:03;;;;;;;;;3.25;3.00;;;;;-145.45;100.00;57426.63;5081313;28;45218;-72
2022/08/02 07:40:28;;;;;;;;;4.00;4.00;;;;;-145.45;100.00;57426.63;5081331;28;45314;-72
2022/08/02 07:42:55;;;;;;;;;3.00;3.00;;;;;-145.45;100.00;57426.63;5081149;27;45261;-72
2022/08/02 07:45:22;;;;;;;;;6.25;4.75;;;;;-145.45;100.00;57426.63;5062530;28;46767;-72
2022/08/02 07:47:48;;;;;;;;;5.50;3.50;;;;;-145.45;100.00;57426.63;5081007;27;45281;-72
2022/08/02 07:50:16;;;;;;;;;6.00;4.00;;;;;-145.45;100.00;57426.63;5063125;28;45403;-72
2022/08/02 07:52:42;;;;;;;;;3.50;2.50;;;;;-145.45;100.00;57426.63;5080987;28;45467;-72
2022/08/02 07:55:08;;;;;;;;;2.75;2.75;;;;;-145.45;100.00;57426.63;5081211;27;46559;-73
2022/08/02 07:57:35;;;;;;;;;1.00;1.00;;;;;-145.45;100.00;57426.63;5080928;27;45264;-72
2022/08/02 08:00:00;;;;;;;;;2.50;2.50;;;;;-145.45;100.00;57426.63;5062990;28;45389;-72
2022/08/02 08:02:25;;;;;;;;;1.50;1.50;;;;;-145.45;100.00;57426.63;5080130;27;45310;-72
2022/08/02 08:04:52;;;;;;;;;3.75;2.25;;;;;-145.45;100.00;57426.63;5077890;27;47443;-73
2022/08/02 08:07:17;;;;;;;;;3.20;2.80;;;;;-145.45;100.00;57426.63;5079284;28;45388;-72
2022/08/02 08:09:44;;;;;;;;;2.75;2.75;;;;;-145.45;100.00;57426.63;5080265;28;45343;-72
2022/08/02 08:12:10;;;;;;;;;4.00;2.50;;;;;-145.45;100.00;57426.63;5080612;27;45471;-73
2022/08/02 08:14:37;;;;;;;;;4.25;2.25;;;;;-145.45;100.00;57426.63;5062544;28;47443;-72
2022/08/02 08:17:02;;;;;;;;;1.60;1.60;;;;;-145.45;100.00;57426.63;5080776;27;45249;-72
2022/08/02 08:19:28;;;;;;;;;2.75;2.75;;;;;-145.45;100.00;57426.63;5080978;28;45276;-73
2022/08/02 08:21:53;;;;;;;;;2.75;2.75;;;;;-145.45;100.00;57426.63;5080638;27;45464;-73
2022/08/02 08:24:19;;;;;;;;;4.00;3.00;;;;;-145.45;100.00;57426.63;5080454;27;45679;-73
2022/08/02 08:26:44;;;;;;;;;1.25;1.25;;;;;-145.45;100.00;57426.63;5079661;28;45372;-73
2022/08/02 08:29:09;;;;;;;;;3.00;3.00;;;;;-145.45;100.00;57426.63;5078811;27;45726;-73
2022/08/02 08:31:35;;;;;;;;;3.00;3.00;;;;;-145.45;100.00;57426.63;5080401;27;45291;-73
2022/08/02 08:34:02;;;;;;;;;2.50;2.25;;;;;-145.45;100.00;57426.63;5083896;27;45308;-73
2022/08/02 08:36:27;;;;;;;;;2.80;2.80;;;;;-145.45;100.00;57426.63;5081365;27;45363;-73
2022/08/02 08:38:53;;;;;;;;;5.00;3.00;;;;;-145.45;100.00;57426.63;5080692;28;45235;-74
2022/08/02 08:41:19;;;;;;;;;1.50;1.50;;;;;-145.45;100.00;57426.63;5078833;27;46244;-73
2022/08/02 08:43:45;;;;;;;;;3.00;3.00;;;;;-145.45;100.00;57426.63;5080349;28;45380;-73
2022/08/02 08:46:28;;;;;;;;;2.80;2.40;;;;;-145.45;100.00;57426.63;5080460;28;45161;-73
2022/08/02 08:48:59;;;;;;;;;2.20;1.60;;;;;-145.45;100.00;57426.63;5080265;27;45224;-73
2022/08/02 08:51:29;;;;;;;;;3.60;2.80;;;;;-145.45;100.00;57426.63;5080302;27;45282;-73
2022/08/02 08:53:58;;;;;;;;;4.20;3.40;;;;;-145.45;100.00;57426.63;5061679;27;46159;-73
2022/08/02 08:56:30;;;;;;;;;2.00;2.00;;;;;-145.45;100.00;57426.63;5080306;28;45238;-73
2022/08/02 08:58:56;;;;;;;;;3.00;1.00;;;;;-145.45;100.00;57426.63;5080261;28;45332;-73
2022/08/02 09:01:22;;;;;;;;;3.00;2.00;;;;;-145.45;100.00;57426.63;5080235;27;45294;-73
2022/08/02 09:03:47;;;;;;;;;2.00;2.00;;;;;-145.45;100.00;57426.63;5061527;28;46168;-73
2022/08/02 09:06:13;;;;;;;;;2.25;2.25;;;;;-145.45;100.00;57426.63;5080193;28;45216;-72
2022/08/02 09:08:38;;;;;;;;;4.00;2.00;;;;;-145.45;100.00;57426.63;5079939;28;45170;-73
2022/08/02 09:11:12;;;;;;;;;3.00;3.00;;;;;-145.45;100.00;57426.63;5080099;27;45300;-72
2022/08/02 09:13:42;;;;;;;;;2.80;2.20;;;;;-145.45;100.00;57426.63;5061018;28;46830;-72
2022/08/02 09:16:07;;;;;;;;;1.80;1.80;;;;;-145.45;100.00;57426.63;5079996;27;45342;-73
2022/08/02 09:18:42;;;;;;;;;3.00;3.00;;;;;-145.45;100.00;57426.63;5079479;28;45261;-73
2022/08/02 09:21:08;;;;;;;;;2.20;1.60;;;;;-145.45;100.00;57426.63;5080000;27;45546;-73
2022/08/02 09:23:37;;;;;;;;;5.60;5.00;;;;;-145.45;100.00;57426.63;5079753;27;46290;-73
2022/08/02 09:26:04;;;;;;;;;2.80;2.20;;;;;-145.45;100.00;57426.63;5079669;28;45245;-73
2022/08/02 09:28:33;;;;;;;;;2.60;2.60;;;;;-145.45;100.00;57426.63;5080126;28;45336;-74
2022/08/02 09:31:05;;;;;;;;;2.00;2.00;;;;;-145.45;100.00;57426.63;5079543;28;45506;-74
2022/08/02 09:33:31;;;;;;;;;3.60;3.60;;;;;-145.45;100.00;57426.63;5079617;28;45310;-74
2022/08/02 09:36:07;;;;;;;;;2.80;2.80;;;;;-145.45;100.00;57426.63;5081103;27;45319;-73
2022/08/02 09:38:35;;;;;;;;;3.00;2.80;;;;;-145.45;100.00;57426.63;5103765;27;45330;-73
2022/08/02 09:41:02;;;;;;;;;2.40;2.40;;;;;-145.45;100.00;57426.63;5103499;27;45458;-74
2022/08/02 09:43:38;;;;;;;;;2.80;2.80;;;;;-145.45;100.00;57426.63;5103689;27;46013;-74
2022/08/02 09:46:19;;;;;;;;;4.00;3.00;;;;;-145.45;100.00;57426.63;5103615;27;45162;-74
2022/08/02 09:48:50;;;;;;;;;2.40;2.40;;;;;-145.45;100.00;57426.63;5103492;27;45434;-74
2022/08/02 09:51:20;;;;;;;;;4.40;3.00;;;;;-145.45;100.00;57426.63;5084870;27;45649;-74
2022/08/02 09:53:48;;;;;;;;;2.60;2.60;;;;;-145.45;100.00;57426.63;5102484;27;45258;-74
2022/08/02 09:56:15;;;;;;;;;1.40;1.20;;;;;-145.45;100.00;57426.63;5103464;27;45221;-74
2022/08/02 09:58:41;;;;;;;;;2.00;1.80;;;;;-145.45;100.00;57426.63;5103666;27;45326;-74
2022/08/02 10:01:07;;;;;;;;;2.50;2.50;;;;;-145.45;100.00;57426.63;5085034;27;46034;-74
2022/08/02 10:03:33;;;;;;;;;3.00;1.60;;;;;-145.45;100.00;57426.63;5102222;27;45557;-74
2022/08/02 10:06:00;;;;;;;;;3.00;2.75;;;;;-145.45;100.00;57426.63;5103452;27;45360;-74
2022/08/02 10:08:27;;;;;;;;;3.00;3.00;;;;;-145.45;100.00;57426.63;5085193;27;45261;-74
2022/08/02 10:10:59;;;;;;;;;4.80;3.80;;;;;-145.45;100.00;57426.63;5084310;27;45776;-74
2022/08/02 10:13:27;;;;;;;;;4.20;3.00;;;;;-145.45;100.00;57426.63;5103143;27;46094;-74
2022/08/02 10:15:53;;;;;;;;;2.80;2.40;;;;;-145.45;100.00;57426.63;5103258;27;45178;-74
2022/08/02 10:18:18;;;;;;;;;2.40;2.40;;;;;-145.45;100.00;57426.63;5103086;27;45252;-74
2022/08/02 10:20:44;;;;;;;;;4.50;2.75;;;;;-145.45;100.00;57426.63;5103175;27;45442;-74
2022/08/02 10:23:12;;;;;;;;;3.50;2.75;;;;;-145.45;100.00;57426.63;5102985;27;46299;-74
2022/08/02 10:25:38;;;;;;;;;1.00;1.00;;;;;-145.45;100.00;57426.63;5084540;27;45294;-74
2022/08/02 10:28:06;;;;;;;;;4.00;2.20;;;;;-145.45;100.00;57426.63;5085728;27;45334;-74
2022/08/02 10:30:37;;;;;;;;;3.60;2.40;;;;;-145.45;100.00;57426.63;5082393;27;45243;-74
2022/08/02 10:33:07;;;;;;;;;1.20;1.20;;;;;-145.45;100.00;57426.63;5082361;27;46186;-74
2022/08/02 10:35:36;;;;;;;;;3.00;2.40;;;;;-145.45;100.00;57426.63;5086957;27;45224;-74
2022/08/02 10:38:06;;;;;;;;;1.60;1.60;;;;;-145.45;100.00;57426.63;5082437;27;46728;-74
2022/08/02 10:40:45;;;;;;;;;2.40;2.40;;;;;-145.45;100.00;57426.63;5082322;27;45155;-74
2022/08/02 10:43:12;;;;;;;;;3.40;3.40;;;;;-145.45;100.00;57426.63;5089260;27;45336;-74
2022/08/02 10:45:38;;;;;;;;;1.00;1.00;;;;;-145.45;100.00;57426.63;5102766;27;45397;-74
2022/08/02 10:48:08;;;;;;;;;2.40;1.00;;;;;-145.45;100.00;57426.63;5102135;27;45388;-74
2022/08/02 10:50:46;;;;;;;;;2.60;2.60;;;;;-145.45;100.00;57426.63;5102608;27;45235;-74
2022/08/02 10:53:28;;;;;;;;;3.00;1.60;;;;;-145.45;100.00;57426.63;5102512;27;46337;-73
2022/08/02 10:55:55;;;;;;;;;2.20;2.20;;;;;-145.45;100.00;57426.63;5101742;27;45239;-74
2022/08/02 10:58:22;;;;;;;;;2.40;2.40;;;;;-145.45;100.00;57426.63;5084276;27;45310;-74
2022/08/02 11:00:49;;;;;;;;;1.00;1.00;;;;;-145.45;100.00;57426.63;5102404;27;45271;-74
2022/08/02 11:03:26;;;;;;;;;1.00;1.00;;;;;-145.45;100.00;57426.63;5102205;27;46290;-74
2022/08/02 11:06:14;;;;;;;;;3.40;2.20;;;;;-145.45;100.00;57426.63;5102494;27;45268;-74
2022/08/02 11:08:39;;;;;;;;;3.40;1.60;;;;;-145.45;100.00;57426.63;5102454;27;45319;-74
2022/08/02 11:11:08;;;;;;;;;2.00;2.00;;;;;-145.45;100.00;57426.63;5102231;27;45279;-74
2022/08/02 11:14:07;;;;;;;;;2.00;2.00;;;;;-145.45;100.00;57426.63;5083620;27;47197;-74